sensor_id;sensor_type;location;lat;lon;timestamp;P1;durP1;ratioP1;P2;durP2;ratioP2
17844;SDS011;9047;53.486;10.218;2023-07-31T01:33:36;10.40;;;4.75;;
17844;SDS011;9047;53.486;10.218;2023-07-31T01:36:03;9.90;;;5.07;;
17844;SDS011;9047;53.486;10.218;2023-07-31T01:38:31;13.77;;;4.82;;
17844;SDS011;9047;53.486;10.218;2023-07-31T01:40:57;11.77;;;5.40;;
17844;SDS011;9047;53.486;10.218;2023-07-31T01:43:24;12.00;;;4.95;;
17844;SDS011;9047;53.486;10.218;2023-07-31T01:45:51;11.50;;;4.95;;
17844;SDS011;9047;53.486;10.218;2023-07-31T01:48:18;14.05;;;5.72;;
17844;SDS011;9047;53.486;10.218;2023-07-31T01:50:46;10.05;;;5.00;;
17844;SDS011;9047;53.486;10.218;2023-07-31T01:53:13;12.27;;;5.32;;
17844;SDS011;9047;53.486;10.218;2023-07-31T01:55:39;16.20;;;5.70;;
17844;SDS011;9047;53.486;10.218;2023-07-31T01:58:06;14.52;;;5.38;;
17844;SDS011;9047;53.486;10.218;2023-07-31T02:00:33;15.13;;;5.55;;
17844;SDS011;9047;53.486;10.218;2023-07-31T02:03:00;15.30;;;5.85;;
17844;SDS011;9047;53.486;10.218;2023-07-31T02:05:27;14.63;;;5.65;;
17844;SDS011;9047;53.486;10.218;2023-07-31T02:07:56;11.95;;;5.28;;
17844;SDS011;9047;53.486;10.218;2023-07-31T02:10:23;12.15;;;5.78;;
17844;SDS011;9047;53.486;10.218;2023-07-31T02:12:50;12.93;;;5.70;;
17844;SDS011;9047;53.486;10.218;2023-07-31T02:15:16;12.85;;;5.43;;
17844;SDS011;9047;53.486;10.218;2023-07-31T02:17:43;12.52;;;5.60;;
17844;SDS011;9047;53.486;10.218;2023-07-31T02:20:10;13.10;;;5.35;;
17844;SDS011;9047;53.486;10.218;2023-07-31T02:22:37;14.32;;;6.03;;
17844;SDS011;9047;53.486;10.218;2023-07-31T02:25:06;15.95;;;6.15;;
17844;SDS011;9047;53.486;10.218;2023-07-31T02:27:33;9.82;;;5.10;;
17844;SDS011;9047;53.486;10.218;2023-07-31T02:30:00;20.30;;;6.45;;
17844;SDS011;9047;53.486;10.218;2023-07-31T02:32:27;11.00;;;5.35;;
17844;SDS011;9047;53.486;10.218;2023-07-31T02:34:54;16.92;;;6.10;;
17844;SDS011;9047;53.486;10.218;2023-07-31T02:37:21;15.65;;;5.65;;
17844;SDS011;9047;53.486;10.218;2023-07-31T02:39:48;14.07;;;6.07;;
17844;SDS011;9047;53.486;10.218;2023-07-31T02:42:16;17.15;;;6.28;;
17844;SDS011;9047;53.486;10.218;2023-07-31T02:44:43;11.23;;;5.90;;
17844;SDS011;9047;53.486;10.218;2023-07-31T02:47:10;13.73;;;5.88;;
17844;SDS011;9047;53.486;10.218;2023-07-31T02:49:37;14.43;;;5.75;;
17844;SDS011;9047;53.486;10.218;2023-07-31T02:52:04;10.70;;;5.78;;
17844;SDS011;9047;53.486;10.218;2023-07-31T02:54:32;15.45;;;6.50;;
17844;SDS011;9047;53.486;10.218;2023-07-31T02:56:59;17.55;;;6.32;;
17844;SDS011;9047;53.486;10.218;2023-07-31T02:59:27;15.05;;;5.68;;
17844;SDS011;9047;53.486;10.218;2023-07-31T03:01:54;15.10;;;6.72;;
17844;SDS011;9047;53.486;10.218;2023-07-31T03:04:21;15.45;;;5.80;;
17844;SDS011;9047;53.486;10.218;2023-07-31T03:06:48;11.10;;;5.40;;
17844;SDS011;9047;53.486;10.218;2023-07-31T03:09:15;11.55;;;5.40;;
17844;SDS011;9047;53.486;10.218;2023-07-31T03:11:41;13.07;;;5.70;;
17844;SDS011;9047;53.486;10.218;2023-07-31T03:14:08;17.05;;;6.00;;
17844;SDS011;9047;53.486;10.218;2023-07-31T03:16:41;11.32;;;5.35;;
17844;SDS011;9047;53.486;10.218;2023-07-31T03:19:08;10.52;;;6.00;;
17844;SDS011;9047;53.486;10.218;2023-07-31T03:21:35;11.43;;;5.30;;
17844;SDS011;9047;53.486;10.218;2023-07-31T03:24:02;12.93;;;5.82;;
17844;SDS011;9047;53.486;10.218;2023-07-31T03:26:31;11.27;;;5.30;;
17844;SDS011;9047;53.486;10.218;2023-07-31T03:28:58;13.13;;;5.55;;
17844;SDS011;9047;53.486;10.218;2023-07-31T03:31:26;8.93;;;5.45;;
17844;SDS011;9047;53.486;10.218;2023-07-31T03:33:54;14.18;;;5.60;;
17844;SDS011;9047;53.486;10.218;2023-07-31T03:36:23;8.93;;;5.20;;
17844;SDS011;9047;53.486;10.218;2023-07-31T03:38:50;15.15;;;5.82;;
17844;SDS011;9047;53.486;10.218;2023-07-31T03:41:18;13.65;;;5.95;;
17844;SDS011;9047;53.486;10.218;2023-07-31T03:43:46;12.23;;;5.82;;
17844;SDS011;9047;53.486;10.218;2023-07-31T03:46:16;9.32;;;5.57;;
17844;SDS011;9047;53.486;10.218;2023-07-31T03:48:44;15.20;;;6.10;;
17844;SDS011;9047;53.486;10.218;2023-07-31T03:51:12;11.82;;;5.85;;
17844;SDS011;9047;53.486;10.218;2023-07-31T03:53:39;10.52;;;6.13;;
17844;SDS011;9047;53.486;10.218;2023-07-31T03:56:13;12.48;;;6.10;;
17844;SDS011;9047;53.486;10.218;2023-07-31T03:58:40;11.10;;;6.18;;
17844;SDS011;9047;53.486;10.218;2023-07-31T04:01:06;16.90;;;7.07;;
17844;SDS011;9047;53.486;10.218;2023-07-31T04:03:33;12.65;;;6.38;;
17844;SDS011;9047;53.486;10.218;2023-07-31T04:06:00;9.07;;;6.75;;
17844;SDS011;9047;53.486;10.218;2023-07-31T04:08:30;10.98;;;6.90;;
17844;SDS011;9047;53.486;10.218;2023-07-31T04:10:57;8.07;;;6.43;;
17844;SDS011;9047;53.486;10.218;2023-07-31T04:13:24;13.77;;;7.82;;
17844;SDS011;9047;53.486;10.218;2023-07-31T04:15:52;12.98;;;8.20;;
17844;SDS011;9047;53.486;10.218;2023-07-31T04:18:19;11.55;;;7.38;;
17844;SDS011;9047;53.486;10.218;2023-07-31T04:20:48;13.75;;;8.15;;
17844;SDS011;9047;53.486;10.218;2023-07-31T04:23:15;10.98;;;8.25;;
17844;SDS011;9047;53.486;10.218;2023-07-31T04:25:43;13.00;;;8.15;;
17844;SDS011;9047;53.486;10.218;2023-07-31T04:28:10;10.77;;;7.22;;
17844;SDS011;9047;53.486;10.218;2023-07-31T04:30:41;13.63;;;7.90;;
17844;SDS011;9047;53.486;10.218;2023-07-31T04:33:08;9.98;;;7.57;;
17844;SDS011;9047;53.486;10.218;2023-07-31T04:35:34;9.10;;;6.97;;
17844;SDS011;9047;53.486;10.218;2023-07-31T04:38:01;10.90;;;7.75;;
17844;SDS011;9047;53.486;10.218;2023-07-31T04:40:28;8.82;;;6.57;;
17844;SDS011;9047;53.486;10.218;2023-07-31T04:42:58;7.72;;;5.93;;
17844;SDS011;9047;53.486;10.218;2023-07-31T04:45:25;8.13;;;6.20;;
17844;SDS011;9047;53.486;10.218;2023-07-31T04:47:51;7.00;;;5.70;;
17844;SDS011;9047;53.486;10.218;2023-07-31T04:50:18;7.43;;;6.05;;
17844;SDS011;9047;53.486;10.218;2023-07-31T04:52:45;7.15;;;6.43;;
17844;SDS011;9047;53.486;10.218;2023-07-31T04:55:13;9.10;;;6.40;;
17844;SDS011;9047;53.486;10.218;2023-07-31T04:57:39;7.10;;;5.30;;
17844;SDS011;9047;53.486;10.218;2023-07-31T05:00:09;7.70;;;6.20;;
17844;SDS011;9047;53.486;10.218;2023-07-31T05:02:36;10.18;;;5.75;;
17844;SDS011;9047;53.486;10.218;2023-07-31T05:05:04;8.48;;;5.68;;
17844;SDS011;9047;53.486;10.218;2023-07-31T05:07:31;6.97;;;5.35;;
17844;SDS011;9047;53.486;10.218;2023-07-31T05:09:57;10.90;;;5.60;;
17844;SDS011;9047;53.486;10.218;2023-07-31T05:12:24;6.80;;;5.97;;
17844;SDS011;9047;53.486;10.218;2023-07-31T05:14:52;6.57;;;5.22;;
17844;SDS011;9047;53.486;10.218;2023-07-31T05:17:21;8.35;;;5.85;;
17844;SDS011;9047;53.486;10.218;2023-07-31T05:19:48;7.82;;;5.65;;
17844;SDS011;9047;53.486;10.218;2023-07-31T05:22:14;7.32;;;5.88;;
17844;SDS011;9047;53.486;10.218;2023-07-31T05:24:41;6.07;;;5.25;;
17844;SDS011;9047;53.486;10.218;2023-07-31T05:27:08;7.78;;;5.60;;
17844;SDS011;9047;53.486;10.218;2023-07-31T05:29:35;6.97;;;5.90;;
17844;SDS011;9047;53.486;10.218;2023-07-31T05:32:02;7.28;;;5.70;;
17844;SDS011;9047;53.486;10.218;2023-07-31T05:34:31;7.60;;;5.90;;
17844;SDS011;9047;53.486;10.218;2023-07-31T05:36:58;7.68;;;6.20;;
17844;SDS011;9047;53.486;10.218;2023-07-31T05:39:24;6.53;;;5.80;;
17844;SDS011;9047;53.486;10.218;2023-07-31T05:41:51;8.48;;;5.70;;
17844;SDS011;9047;53.486;10.218;2023-07-31T05:44:18;6.28;;;5.68;;
17844;SDS011;9047;53.486;10.218;2023-07-31T05:46:45;6.47;;;5.70;;
17844;SDS011;9047;53.486;10.218;2023-07-31T05:49:12;6.85;;;5.68;;
17844;SDS011;9047;53.486;10.218;2023-07-31T05:51:40;6.15;;;5.55;;
17844;SDS011;9047;53.486;10.218;2023-07-31T05:54:07;7.25;;;5.82;;
17844;SDS011;9047;53.486;10.218;2023-07-31T05:56:34;6.57;;;5.40;;
17844;SDS011;9047;53.486;10.218;2023-07-31T05:59:01;8.00;;;5.65;;
17844;SDS011;9047;53.486;10.218;2023-07-31T06:01:28;8.00;;;6.38;;
17844;SDS011;9047;53.486;10.218;2023-07-31T06:03:57;7.80;;;6.53;;
17844;SDS011;9047;53.486;10.218;2023-07-31T06:06:26;7.50;;;6.45;;
17844;SDS011;9047;53.486;10.218;2023-07-31T06:08:55;6.40;;;5.80;;
17844;SDS011;9047;53.486;10.218;2023-07-31T06:11:22;6.60;;;5.50;;
17844;SDS011;9047;53.486;10.218;2023-07-31T06:13:49;7.82;;;5.55;;
17844;SDS011;9047;53.486;10.218;2023-07-31T06:16:16;8.52;;;5.85;;
17844;SDS011;9047;53.486;10.218;2023-07-31T06:18:44;7.07;;;5.00;;
17844;SDS011;9047;53.486;10.218;2023-07-31T06:21:11;5.97;;;5.30;;
17844;SDS011;9047;53.486;10.218;2023-07-31T06:23:38;7.05;;;5.10;;
17844;SDS011;9047;53.486;10.218;2023-07-31T06:26:06;5.30;;;4.80;;
17844;SDS011;9047;53.486;10.218;2023-07-31T06:28:33;6.13;;;5.07;;
17844;SDS011;9047;53.486;10.218;2023-07-31T06:31:00;4.80;;;4.32;;
17844;SDS011;9047;53.486;10.218;2023-07-31T06:33:27;5.43;;;4.93;;
17844;SDS011;9047;53.486;10.218;2023-07-31T06:35:54;5.63;;;4.70;;
17844;SDS011;9047;53.486;10.218;2023-07-31T06:38:22;4.50;;;4.10;;
17844;SDS011;9047;53.486;10.218;2023-07-31T06:40:50;5.63;;;4.10;;
17844;SDS011;9047;53.486;10.218;2023-07-31T06:43:18;4.65;;;4.25;;
17844;SDS011;9047;53.486;10.218;2023-07-31T06:45:45;4.82;;;4.10;;
17844;SDS011;9047;53.486;10.218;2023-07-31T06:48:15;6.60;;;3.75;;
17844;SDS011;9047;53.486;10.218;2023-07-31T06:50:44;4.93;;;4.07;;
17844;SDS011;9047;53.486;10.218;2023-07-31T06:53:10;4.00;;;3.60;;
17844;SDS011;9047;53.486;10.218;2023-07-31T06:55:38;5.15;;;4.05;;
17844;SDS011;9047;53.486;10.218;2023-07-31T06:58:04;4.57;;;3.78;;
17844;SDS011;9047;53.486;10.218;2023-07-31T07:00:33;3.85;;;3.47;;
17844;SDS011;9047;53.486;10.218;2023-07-31T07:02:59;4.72;;;3.13;;
17844;SDS011;9047;53.486;10.218;2023-07-31T07:05:26;3.30;;;3.00;;
17844;SDS011;9047;53.486;10.218;2023-07-31T07:07:53;3.13;;;2.83;;
17844;SDS011;9047;53.486;10.218;2023-07-31T07:10:20;3.60;;;2.83;;
17844;SDS011;9047;53.486;10.218;2023-07-31T07:12:47;3.05;;;2.80;;
17844;SDS011;9047;53.486;10.218;2023-07-31T07:15:14;3.00;;;2.70;;
17844;SDS011;9047;53.486;10.218;2023-07-31T07:17:43;2.67;;;2.47;;
17844;SDS011;9047;53.486;10.218;2023-07-31T07:20:10;2.65;;;2.45;;
17844;SDS011;9047;53.486;10.218;2023-07-31T07:22:38;2.45;;;2.25;;
17844;SDS011;9047;53.486;10.218;2023-07-31T07:25:08;2.50;;;2.30;;
17844;SDS011;9047;53.486;10.218;2023-07-31T07:27:35;2.58;;;2.22;;
17844;SDS011;9047;53.486;10.218;2023-07-31T07:30:02;3.03;;;2.72;;
17844;SDS011;9047;53.486;10.218;2023-07-31T07:32:29;2.70;;;2.50;;
17844;SDS011;9047;53.486;10.218;2023-07-31T07:34:58;2.42;;;2.20;;
17844;SDS011;9047;53.486;10.218;2023-07-31T07:37:25;2.85;;;2.40;;
17844;SDS011;9047;53.486;10.218;2023-07-31T07:39:52;2.38;;;2.17;;
17844;SDS011;9047;53.486;10.218;2023-07-31T07:42:18;3.83;;;2.35;;
17844;SDS011;9047;53.486;10.218;2023-07-31T07:44:45;2.60;;;2.40;;
17844;SDS011;9047;53.486;10.218;2023-07-31T07:47:13;3.70;;;2.75;;
17844;SDS011;9047;53.486;10.218;2023-07-31T07:49:40;2.65;;;2.45;;
17844;SDS011;9047;53.486;10.218;2023-07-31T07:52:08;2.40;;;2.20;;
17844;SDS011;9047;53.486;10.218;2023-07-31T07:54:35;2.65;;;2.10;;
17844;SDS011;9047;53.486;10.218;2023-07-31T07:57:02;3.25;;;2.33;;
17844;SDS011;9047;53.486;10.218;2023-07-31T07:59:29;1.80;;;1.70;;
17844;SDS011;9047;53.486;10.218;2023-07-31T08:01:57;1.80;;;1.70;;
17844;SDS011;9047;53.486;10.218;2023-07-31T08:04:23;3.20;;;2.05;;
17844;SDS011;9047;53.486;10.218;2023-07-31T08:06:50;2.00;;;1.88;;
17844;SDS011;9047;53.486;10.218;2023-07-31T08:09:19;1.80;;;1.70;;
17844;SDS011;9047;53.486;10.218;2023-07-31T08:11:46;1.70;;;1.60;;
17844;SDS011;9047;53.486;10.218;2023-07-31T08:14:13;1.52;;;1.40;;
17844;SDS011;9047;53.486;10.218;2023-07-31T08:16:40;1.27;;;1.17;;
17844;SDS011;9047;53.486;10.218;2023-07-31T08:19:06;1.27;;;1.13;;
17844;SDS011;9047;53.486;10.218;2023-07-31T08:21:34;1.75;;;1.40;;
17844;SDS011;9047;53.486;10.218;2023-07-31T08:24:00;1.70;;;1.60;;
17844;SDS011;9047;53.486;10.218;2023-07-31T08:26:29;1.75;;;1.33;;
17844;SDS011;9047;53.486;10.218;2023-07-31T08:28:55;1.67;;;1.25;;
17844;SDS011;9047;53.486;10.218;2023-07-31T08:31:22;1.27;;;1.15;;
17844;SDS011;9047;53.486;10.218;2023-07-31T08:33:49;1.30;;;1.20;;
17844;SDS011;9047;53.486;10.218;2023-07-31T08:36:16;1.50;;;1.38;;
17844;SDS011;9047;53.486;10.218;2023-07-31T08:38:45;1.40;;;1.30;;
17844;SDS011;9047;53.486;10.218;2023-07-31T08:41:12;1.27;;;1.13;;
17844;SDS011;9047;53.486;10.218;2023-07-31T08:43:40;3.10;;;1.25;;
17844;SDS011;9047;53.486;10.218;2023-07-31T08:46:08;1.10;;;1.00;;
17844;SDS011;9047;53.486;10.218;2023-07-31T08:48:35;1.23;;;1.13;;
17844;SDS011;9047;53.486;10.218;2023-07-31T08:51:03;1.52;;;1.20;;
17844;SDS011;9047;53.486;10.218;2023-07-31T08:53:30;1.55;;;1.30;;
17844;SDS011;9047;53.486;10.218;2023-07-31T08:55:56;2.03;;;1.25;;
17844;SDS011;9047;53.486;10.218;2023-07-31T08:58:25;0.90;;;0.80;;
17844;SDS011;9047;53.486;10.218;2023-07-31T09:00:57;1.30;;;1.08;;
17844;SDS011;9047;53.486;10.218;2023-07-31T09:03:29;2.75;;;1.80;;
17844;SDS011;9047;53.486;10.218;2023-07-31T09:06:00;2.47;;;1.77;;
17844;SDS011;9047;53.486;10.218;2023-07-31T09:08:30;1.20;;;0.93;;
17844;SDS011;9047;53.486;10.218;2023-07-31T09:10:59;1.00;;;0.90;;
17844;SDS011;9047;53.486;10.218;2023-07-31T09:13:28;0.77;;;0.70;;
17844;SDS011;9047;53.486;10.218;2023-07-31T09:15:57;0.95;;;0.73;;
17844;SDS011;9047;53.486;10.218;2023-07-31T09:18:24;1.10;;;0.70;;
17844;SDS011;9047;53.486;10.218;2023-07-31T09:21:01;0.93;;;0.80;;
17844;SDS011;9047;53.486;10.218;2023-07-31T09:23:40;0.60;;;0.60;;
17844;SDS011;9047;53.486;10.218;2023-07-31T09:26:08;1.88;;;0.60;;
17844;SDS011;9047;53.486;10.218;2023-07-31T09:28:34;0.68;;;0.50;;
17844;SDS011;9047;53.486;10.218;2023-07-31T09:31:03;1.40;;;0.52;;
17844;SDS011;9047;53.486;10.218;2023-07-31T09:33:30;1.15;;;0.68;;
17844;SDS011;9047;53.486;10.218;2023-07-31T09:36:00;1.27;;;0.50;;
17844;SDS011;9047;53.486;10.218;2023-07-31T09:38:26;1.20;;;0.50;;
17844;SDS011;9047;53.486;10.218;2023-07-31T09:40:53;0.43;;;0.43;;
17844;SDS011;9047;53.486;10.218;2023-07-31T09:43:21;1.40;;;0.50;;
17844;SDS011;9047;53.486;10.218;2023-07-31T09:45:54;1.63;;;0.43;;
17844;SDS011;9047;53.486;10.218;2023-07-31T09:48:23;0.52;;;0.50;;
17844;SDS011;9047;53.486;10.218;2023-07-31T09:50:52;0.90;;;0.50;;
17844;SDS011;9047;53.486;10.218;2023-07-31T09:53:19;1.30;;;0.55;;
17844;SDS011;9047;53.486;10.218;2023-07-31T09:55:54;0.60;;;0.40;;
17844;SDS011;9047;53.486;10.218;2023-07-31T09:58:25;0.95;;;0.50;;
17844;SDS011;9047;53.486;10.218;2023-07-31T10:00:55;0.88;;;0.50;;
17844;SDS011;9047;53.486;10.218;2023-07-31T10:03:30;2.00;;;0.40;;
17844;SDS011;9047;53.486;10.218;2023-07-31T10:05:59;0.50;;;0.30;;
17844;SDS011;9047;53.486;10.218;2023-07-31T10:08:28;0.40;;;0.40;;
17844;SDS011;9047;53.486;10.218;2023-07-31T10:10:59;0.43;;;0.43;;
17844;SDS011;9047;53.486;10.218;2023-07-31T10:13:27;0.40;;;0.40;;
17844;SDS011;9047;53.486;10.218;2023-07-31T10:15:56;0.70;;;0.50;;
17844;SDS011;9047;53.486;10.218;2023-07-31T10:18:25;3.13;;;1.90;;
17844;SDS011;9047;53.486;10.218;2023-07-31T10:20:54;5.85;;;2.40;;
17844;SDS011;9047;53.486;10.218;2023-07-31T10:23:22;5.65;;;2.70;;
17844;SDS011;9047;53.486;10.218;2023-07-31T10:25:50;8.13;;;4.20;;
17844;SDS011;9047;53.486;10.218;2023-07-31T10:28:19;8.50;;;4.85;;
17844;SDS011;9047;53.486;10.218;2023-07-31T10:30:47;9.18;;;3.88;;
17844;SDS011;9047;53.486;10.218;2023-07-31T10:33:15;10.13;;;5.28;;
17844;SDS011;9047;53.486;10.218;2023-07-31T10:35:42;14.73;;;6.38;;
17844;SDS011;9047;53.486;10.218;2023-07-31T10:38:10;13.80;;;6.45;;
17844;SDS011;9047;53.486;10.218;2023-07-31T10:40:38;13.55;;;7.55;;
17844;SDS011;9047;53.486;10.218;2023-07-31T10:43:05;18.52;;;8.80;;
17844;SDS011;9047;53.486;10.218;2023-07-31T10:45:34;22.38;;;9.63;;
17844;SDS011;9047;53.486;10.218;2023-07-31T10:48:03;20.25;;;9.43;;
17844;SDS011;9047;53.486;10.218;2023-07-31T10:50:31;19.45;;;9.45;;
17844;SDS011;9047;53.486;10.218;2023-07-31T10:52:58;20.73;;;10.07;;
17844;SDS011;9047;53.486;10.218;2023-07-31T10:55:29;22.58;;;10.90;;
17844;SDS011;9047;53.486;10.218;2023-07-31T10:57:57;20.65;;;9.07;;
17844;SDS011;9047;53.486;10.218;2023-07-31T11:00:31;16.35;;;8.82;;
17844;SDS011;9047;53.486;10.218;2023-07-31T11:02:59;15.38;;;7.90;;
17844;SDS011;9047;53.486;10.218;2023-07-31T11:08:14;15.18;;;7.50;;
17844;SDS011;9047;53.486;10.218;2023-07-31T11:10:44;13.20;;;6.85;;
17844;SDS011;9047;53.486;10.218;2023-07-31T11:13:12;13.60;;;6.93;;
17844;SDS011;9047;53.486;10.218;2023-07-31T11:15:39;14.82;;;6.80;;
17844;SDS011;9047;53.486;10.218;2023-07-31T11:18:06;13.05;;;5.90;;
17844;SDS011;9047;53.486;10.218;2023-07-31T11:20:35;9.55;;;4.95;;
17844;SDS011;9047;53.486;10.218;2023-07-31T11:23:04;10.55;;;5.60;;
17844;SDS011;9047;53.486;10.218;2023-07-31T11:25:33;10.10;;;4.78;;
17844;SDS011;9047;53.486;10.218;2023-07-31T11:28:03;9.73;;;4.80;;
17844;SDS011;9047;53.486;10.218;2023-07-31T11:30:31;11.00;;;4.85;;
17844;SDS011;9047;53.486;10.218;2023-07-31T11:32:57;8.45;;;5.38;;
17844;SDS011;9047;53.486;10.218;2023-07-31T11:35:25;8.27;;;4.93;;
17844;SDS011;9047;53.486;10.218;2023-07-31T11:37:54;10.75;;;5.40;;
17844;SDS011;9047;53.486;10.218;2023-07-31T11:40:22;10.95;;;5.32;;
17844;SDS011;9047;53.486;10.218;2023-07-31T11:42:53;8.65;;;4.43;;
17844;SDS011;9047;53.486;10.218;2023-07-31T11:45:24;8.65;;;4.65;;
17844;SDS011;9047;53.486;10.218;2023-07-31T11:47:51;9.32;;;4.93;;
17844;SDS011;9047;53.486;10.218;2023-07-31T11:50:19;8.05;;;4.63;;
17844;SDS011;9047;53.486;10.218;2023-07-31T11:52:46;6.30;;;4.10;;
17844;SDS011;9047;53.486;10.218;2023-07-31T11:55:16;5.32;;;3.88;;
17844;SDS011;9047;53.486;10.218;2023-07-31T11:57:43;6.63;;;3.80;;
17844;SDS011;9047;53.486;10.218;2023-07-31T12:00:13;6.85;;;4.22;;
17844;SDS011;9047;53.486;10.218;2023-07-31T12:02:42;5.85;;;3.75;;
17844;SDS011;9047;53.486;10.218;2023-07-31T12:05:13;7.22;;;3.97;;
17844;SDS011;9047;53.486;10.218;2023-07-31T12:07:47;6.60;;;3.47;;
17844;SDS011;9047;53.486;10.218;2023-07-31T12:10:26;7.10;;;3.60;;
17844;SDS011;9047;53.486;10.218;2023-07-31T12:12:58;4.75;;;3.25;;
17844;SDS011;9047;53.486;10.218;2023-07-31T12:15:33;3.63;;;2.67;;
17844;SDS011;9047;53.486;10.218;2023-07-31T12:18:07;4.30;;;2.80;;
17844;SDS011;9047;53.486;10.218;2023-07-31T12:20:39;4.05;;;2.80;;
17844;SDS011;9047;53.486;10.218;2023-07-31T12:23:12;4.53;;;2.60;;
17844;SDS011;9047;53.486;10.218;2023-07-31T12:25:40;6.47;;;3.00;;
17844;SDS011;9047;53.486;10.218;2023-07-31T12:28:07;4.57;;;2.60;;
17844;SDS011;9047;53.486;10.218;2023-07-31T12:30:37;3.83;;;2.40;;
17844;SDS011;9047;53.486;10.218;2023-07-31T12:33:12;4.03;;;2.45;;
17844;SDS011;9047;53.486;10.218;2023-07-31T12:35:41;3.60;;;2.38;;
17844;SDS011;9047;53.486;10.218;2023-07-31T12:38:11;2.72;;;2.15;;
17844;SDS011;9047;53.486;10.218;2023-07-31T12:40:39;2.72;;;2.08;;
17844;SDS011;9047;53.486;10.218;2023-07-31T12:43:06;3.28;;;2.20;;
17844;SDS011;9047;53.486;10.218;2023-07-31T12:45:33;3.97;;;2.20;;
17844;SDS011;9047;53.486;10.218;2023-07-31T12:48:01;2.75;;;2.08;;
17844;SDS011;9047;53.486;10.218;2023-07-31T12:50:29;2.40;;;2.15;;
17844;SDS011;9047;53.486;10.218;2023-07-31T12:52:56;3.40;;;2.00;;
17844;SDS011;9047;53.486;10.218;2023-07-31T12:55:23;2.83;;;2.05;;
17844;SDS011;9047;53.486;10.218;2023-07-31T12:57:50;2.85;;;2.10;;
17844;SDS011;9047;53.486;10.218;2023-07-31T13:00:17;5.20;;;2.10;;
17844;SDS011;9047;53.486;10.218;2023-07-31T13:02:44;3.92;;;1.80;;
17844;SDS011;9047;53.486;10.218;2023-07-31T13:05:12;2.05;;;1.75;;
17844;SDS011;9047;53.486;10.218;2023-07-31T13:07:40;3.15;;;1.90;;
17844;SDS011;9047;53.486;10.218;2023-07-31T13:10:07;2.05;;;1.60;;
17844;SDS011;9047;53.486;10.218;2023-07-31T13:12:34;3.08;;;1.70;;
17844;SDS011;9047;53.486;10.218;2023-07-31T13:15:01;2.03;;;1.77;;
17844;SDS011;9047;53.486;10.218;2023-07-31T13:17:28;2.53;;;2.00;;
17844;SDS011;9047;53.486;10.218;2023-07-31T13:19:53;2.85;;;1.92;;
17844;SDS011;9047;53.486;10.218;2023-07-31T13:22:20;2.55;;;1.90;;
17844;SDS011;9047;53.486;10.218;2023-07-31T13:24:49;2.10;;;1.83;;
17844;SDS011;9047;53.486;10.218;2023-07-31T13:27:17;2.83;;;1.83;;
17844;SDS011;9047;53.486;10.218;2023-07-31T13:29:46;2.08;;;1.58;;
17844;SDS011;9047;53.486;10.218;2023-07-31T13:32:13;2.63;;;1.73;;
17844;SDS011;9047;53.486;10.218;2023-07-31T13:34:40;1.45;;;1.30;;
17844;SDS011;9047;53.486;10.218;2023-07-31T13:37:07;2.42;;;1.73;;
17844;SDS011;9047;53.486;10.218;2023-07-31T13:39:34;2.03;;;1.40;;
17844;SDS011;9047;53.486;10.218;2023-07-31T13:42:03;1.73;;;1.63;;
17844;SDS011;9047;53.486;10.218;2023-07-31T13:44:31;2.90;;;1.88;;
17844;SDS011;9047;53.486;10.218;2023-07-31T13:46:58;2.60;;;1.73;;
17844;SDS011;9047;53.486;10.218;2023-07-31T13:49:25;2.35;;;1.77;;
17844;SDS011;9047;53.486;10.218;2023-07-31T13:51:52;2.13;;;1.40;;
17844;SDS011;9047;53.486;10.218;2023-07-31T13:54:19;1.75;;;1.40;;
17844;SDS011;9047;53.486;10.218;2023-07-31T13:56:46;1.50;;;1.40;;
17844;SDS011;9047;53.486;10.218;2023-07-31T13:59:14;1.90;;;1.30;;
17844;SDS011;9047;53.486;10.218;2023-07-31T14:01:41;1.25;;;1.15;;
17844;SDS011;9047;53.486;10.218;2023-07-31T14:04:08;1.85;;;1.20;;
17844;SDS011;9047;53.486;10.218;2023-07-31T14:06:35;1.70;;;1.60;;
17844;SDS011;9047;53.486;10.218;2023-07-31T14:09:02;1.40;;;1.20;;
17844;SDS011;9047;53.486;10.218;2023-07-31T14:11:30;2.08;;;1.30;;
17844;SDS011;9047;53.486;10.218;2023-07-31T14:13:57;1.40;;;1.30;;
17844;SDS011;9047;53.486;10.218;2023-07-31T14:16:25;1.33;;;1.20;;
17844;SDS011;9047;53.486;10.218;2023-07-31T14:18:52;2.53;;;1.50;;
17844;SDS011;9047;53.486;10.218;2023-07-31T14:21:19;2.22;;;1.42;;
17844;SDS011;9047;53.486;10.218;2023-07-31T14:23:46;1.90;;;1.50;;
17844;SDS011;9047;53.486;10.218;2023-07-31T14:26:13;1.35;;;1.25;;
17844;SDS011;9047;53.486;10.218;2023-07-31T14:28:40;1.20;;;1.10;;
17844;SDS011;9047;53.486;10.218;2023-07-31T14:31:06;1.00;;;1.00;;
17844;SDS011;9047;53.486;10.218;2023-07-31T14:33:35;1.02;;;0.93;;
17844;SDS011;9047;53.486;10.218;2023-07-31T14:36:02;4.85;;;1.48;;
17844;SDS011;9047;53.486;10.218;2023-07-31T14:38:29;2.30;;;1.45;;
17844;SDS011;9047;53.486;10.218;2023-07-31T14:40:55;1.95;;;1.50;;
17844;SDS011;9047;53.486;10.218;2023-07-31T14:43:22;1.90;;;1.70;;
17844;SDS011;9047;53.486;10.218;2023-07-31T14:45:49;2.40;;;1.95;;
17844;SDS011;9047;53.486;10.218;2023-07-31T14:48:16;3.35;;;1.92;;
17844;SDS011;9047;53.486;10.218;2023-07-31T14:50:44;2.10;;;1.73;;
17844;SDS011;9047;53.486;10.218;2023-07-31T14:53:11;3.35;;;1.90;;
17844;SDS011;9047;53.486;10.218;2023-07-31T14:55:38;2.88;;;2.20;;
17844;SDS011;9047;53.486;10.218;2023-07-31T14:58:05;2.95;;;2.70;;
17844;SDS011;9047;53.486;10.218;2023-07-31T15:00:31;2.83;;;2.63;;
17844;SDS011;9047;53.486;10.218;2023-07-31T15:02:58;3.45;;;3.15;;
17844;SDS011;9047;53.486;10.218;2023-07-31T15:05:25;5.07;;;3.40;;
17844;SDS011;9047;53.486;10.218;2023-07-31T15:07:53;4.38;;;3.20;;
17844;SDS011;9047;53.486;10.218;2023-07-31T15:10:20;3.90;;;3.50;;
17844;SDS011;9047;53.486;10.218;2023-07-31T15:12:46;4.43;;;3.22;;
17844;SDS011;9047;53.486;10.218;2023-07-31T15:15:15;3.78;;;3.47;;
17844;SDS011;9047;53.486;10.218;2023-07-31T15:17:42;4.03;;;3.63;;
17844;SDS011;9047;53.486;10.218;2023-07-31T15:20:09;4.55;;;3.60;;
17844;SDS011;9047;53.486;10.218;2023-07-31T15:22:37;4.75;;;3.42;;
17844;SDS011;9047;53.486;10.218;2023-07-31T15:25:06;5.43;;;4.10;;
17844;SDS011;9047;53.486;10.218;2023-07-31T15:27:34;4.55;;;4.03;;
17844;SDS011;9047;53.486;10.218;2023-07-31T15:30:00;4.97;;;3.75;;
17844;SDS011;9047;53.486;10.218;2023-07-31T15:32:30;5.53;;;4.18;;
17844;SDS011;9047;53.486;10.218;2023-07-31T15:34:57;5.05;;;4.07;;
17844;SDS011;9047;53.486;10.218;2023-07-31T15:37:23;5.70;;;4.00;;
17844;SDS011;9047;53.486;10.218;2023-07-31T15:39:50;4.30;;;3.78;;
17844;SDS011;9047;53.486;10.218;2023-07-31T15:42:18;5.32;;;4.45;;
17844;SDS011;9047;53.486;10.218;2023-07-31T15:44:46;4.25;;;3.85;;
17844;SDS011;9047;53.486;10.218;2023-07-31T15:47:12;6.45;;;4.45;;
17844;SDS011;9047;53.486;10.218;2023-07-31T15:49:39;5.55;;;4.45;;
17844;SDS011;9047;53.486;10.218;2023-07-31T15:52:06;5.07;;;4.32;;
17844;SDS011;9047;53.486;10.218;2023-07-31T15:54:33;5.82;;;4.72;;
17844;SDS011;9047;53.486;10.218;2023-07-31T15:57:00;6.25;;;5.22;;
17844;SDS011;9047;53.486;10.218;2023-07-31T15:59:32;6.32;;;5.15;;
17844;SDS011;9047;53.486;10.218;2023-07-31T16:02:02;6.90;;;5.35;;
17844;SDS011;9047;53.486;10.218;2023-07-31T16:04:29;7.07;;;5.57;;
17844;SDS011;9047;53.486;10.218;2023-07-31T16:06:56;8.32;;;6.03;;
17844;SDS011;9047;53.486;10.218;2023-07-31T16:09:24;9.73;;;6.65;;
17844;SDS011;9047;53.486;10.218;2023-07-31T16:11:52;10.50;;;6.50;;
17844;SDS011;9047;53.486;10.218;2023-07-31T16:14:19;8.88;;;6.93;;
17844;SDS011;9047;53.486;10.218;2023-07-31T16:16:49;8.10;;;6.70;;
17844;SDS011;9047;53.486;10.218;2023-07-31T16:19:17;9.02;;;6.82;;
17844;SDS011;9047;53.486;10.218;2023-07-31T16:21:44;8.80;;;7.15;;